< < Back
Terminal Aerodrome Forecast


Current Version              Previous Versions:   1  2  3  4  5  6  7  8  9  

Terminal Aerodrome Forecast

773
FTUS42 KFFC 041731
TAFPDK
TAF
KPDK 041731Z 0418/0518 22007KT P6SM VCSH BKN040
     FM050000 25008KT 5SM SHRA SCT025 BKN040
      TEMPO 0501/0505 VRB15G25KT 3SM TSRA BKN025CB
     FM050600 28006KT 4SM BR BKN015
     FM051100 00000KT 2SM BR BKN012
     FM051500 25006KT 6SM -SHRA SCT012 BKN045=

Latest METAR

976
SAUS70 KWBC 050400 RRB
MTRPDK
METAR KPDK 050353Z 19012KT 7SM -RA SCT120 23/21 A3009 RMK AO2 RAB0255
SLP176 P0003 T02280206


USA.gov is the U.S. government's official web portal to all federal, state and local government web resources and services.